sensor_id;sensor_type;location;lat;lon;timestamp;P1;durP1;ratioP1;P2;durP2;ratioP2
15931;SDS011;8065;49.520;11.284;2023-02-15T00:01:27;15.83;;;10.33;;
15931;SDS011;8065;49.520;11.284;2023-02-15T00:03:55;17.60;;;11.10;;
15931;SDS011;8065;49.520;11.284;2023-02-15T00:06:22;18.13;;;11.00;;
15931;SDS011;8065;49.520;11.284;2023-02-15T00:08:48;16.70;;;10.77;;
15931;SDS011;8065;49.520;11.284;2023-02-15T00:11:16;18.43;;;10.50;;
15931;SDS011;8065;49.520;11.284;2023-02-15T00:14:04;16.13;;;10.33;;
15931;SDS011;8065;49.520;11.284;2023-02-15T00:16:31;18.00;;;10.47;;
15931;SDS011;8065;49.520;11.284;2023-02-15T00:18:59;16.23;;;10.57;;
15931;SDS011;8065;49.520;11.284;2023-02-15T00:21:27;16.33;;;10.23;;
15931;SDS011;8065;49.520;11.284;2023-02-15T00:23:54;17.87;;;11.00;;
15931;SDS011;8065;49.520;11.284;2023-02-15T00:26:21;16.73;;;10.63;;
15931;SDS011;8065;49.520;11.284;2023-02-15T00:28:47;16.57;;;10.63;;
15931;SDS011;8065;49.520;11.284;2023-02-15T00:31:14;17.93;;;10.87;;
15931;SDS011;8065;49.520;11.284;2023-02-15T00:33:41;17.60;;;11.73;;
15931;SDS011;8065;49.520;11.284;2023-02-15T00:36:09;16.33;;;10.60;;
15931;SDS011;8065;49.520;11.284;2023-02-15T00:38:37;15.93;;;10.13;;
15931;SDS011;8065;49.520;11.284;2023-02-15T00:41:05;15.07;;;10.00;;
15931;SDS011;8065;49.520;11.284;2023-02-15T00:43:33;15.73;;;10.67;;
15931;SDS011;8065;49.520;11.284;2023-02-15T00:46:00;16.27;;;10.33;;
15931;SDS011;8065;49.520;11.284;2023-02-15T00:48:28;16.73;;;10.30;;
15931;SDS011;8065;49.520;11.284;2023-02-15T00:50:55;15.87;;;9.97;;
15931;SDS011;8065;49.520;11.284;2023-02-15T00:53:24;16.10;;;9.90;;
15931;SDS011;8065;49.520;11.284;2023-02-15T00:55:51;15.90;;;10.47;;
15931;SDS011;8065;49.520;11.284;2023-02-15T00:58:18;16.13;;;10.53;;
15931;SDS011;8065;49.520;11.284;2023-02-15T01:00:46;16.00;;;10.67;;
15931;SDS011;8065;49.520;11.284;2023-02-15T01:03:13;15.33;;;10.23;;
15931;SDS011;8065;49.520;11.284;2023-02-15T01:05:41;16.17;;;10.13;;
15931;SDS011;8065;49.520;11.284;2023-02-15T01:08:07;15.17;;;10.13;;
15931;SDS011;8065;49.520;11.284;2023-02-15T01:10:36;16.27;;;10.43;;
15931;SDS011;8065;49.520;11.284;2023-02-15T01:13:02;15.00;;;9.87;;
15931;SDS011;8065;49.520;11.284;2023-02-15T01:15:29;16.83;;;11.13;;
15931;SDS011;8065;49.520;11.284;2023-02-15T01:17:55;15.57;;;10.33;;
15931;SDS011;8065;49.520;11.284;2023-02-15T01:20:23;14.87;;;10.07;;
15931;SDS011;8065;49.520;11.284;2023-02-15T01:22:52;14.83;;;9.80;;
15931;SDS011;8065;49.520;11.284;2023-02-15T01:25:19;15.30;;;10.57;;
15931;SDS011;8065;49.520;11.284;2023-02-15T01:27:48;15.00;;;10.37;;
15931;SDS011;8065;49.520;11.284;2023-02-15T01:30:15;15.77;;;10.63;;
15931;SDS011;8065;49.520;11.284;2023-02-15T01:32:42;17.50;;;10.37;;
15931;SDS011;8065;49.520;11.284;2023-02-15T01:35:09;16.87;;;11.17;;
15931;SDS011;8065;49.520;11.284;2023-02-15T01:37:37;14.10;;;9.77;;
15931;SDS011;8065;49.520;11.284;2023-02-15T01:40:05;14.77;;;9.87;;
15931;SDS011;8065;49.520;11.284;2023-02-15T01:42:34;15.73;;;10.77;;
15931;SDS011;8065;49.520;11.284;2023-02-15T01:45:02;16.40;;;10.67;;
15931;SDS011;8065;49.520;11.284;2023-02-15T01:47:32;16.40;;;10.50;;
15931;SDS011;8065;49.520;11.284;2023-02-15T01:50:03;17.57;;;11.13;;
15931;SDS011;8065;49.520;11.284;2023-02-15T01:52:35;15.03;;;10.10;;
15931;SDS011;8065;49.520;11.284;2023-02-15T01:55:06;15.50;;;9.87;;
15931;SDS011;8065;49.520;11.284;2023-02-15T01:57:35;16.73;;;10.33;;
15931;SDS011;8065;49.520;11.284;2023-02-15T02:00:06;16.17;;;10.30;;
15931;SDS011;8065;49.520;11.284;2023-02-15T02:02:34;17.80;;;10.93;;
15931;SDS011;8065;49.520;11.284;2023-02-15T02:05:03;15.83;;;9.97;;
15931;SDS011;8065;49.520;11.284;2023-02-15T02:07:33;15.60;;;9.73;;
15931;SDS011;8065;49.520;11.284;2023-02-15T02:10:03;16.40;;;10.30;;
15931;SDS011;8065;49.520;11.284;2023-02-15T02:12:31;15.60;;;10.03;;
15931;SDS011;8065;49.520;11.284;2023-02-15T02:14:58;15.40;;;9.53;;
15931;SDS011;8065;49.520;11.284;2023-02-15T02:17:29;15.43;;;10.13;;
15931;SDS011;8065;49.520;11.284;2023-02-15T02:20:17;16.40;;;9.53;;
15931;SDS011;8065;49.520;11.284;2023-02-15T02:29:21;16.03;;;10.23;;
15931;SDS011;8065;49.520;11.284;2023-02-15T02:32:07;14.93;;;9.80;;
15931;SDS011;8065;49.520;11.284;2023-02-15T02:35:00;13.80;;;9.37;;
15931;SDS011;8065;49.520;11.284;2023-02-15T02:37:34;15.43;;;9.63;;
15931;SDS011;8065;49.520;11.284;2023-02-15T02:40:13;13.13;;;8.83;;
15931;SDS011;8065;49.520;11.284;2023-02-15T02:42:47;13.63;;;9.27;;
15931;SDS011;8065;49.520;11.284;2023-02-15T02:45:20;15.37;;;10.10;;
15931;SDS011;8065;49.520;11.284;2023-02-15T02:47:52;18.03;;;10.33;;
15931;SDS011;8065;49.520;11.284;2023-02-15T02:50:25;13.67;;;8.80;;
15931;SDS011;8065;49.520;11.284;2023-02-15T02:52:54;12.90;;;8.83;;
15931;SDS011;8065;49.520;11.284;2023-02-15T02:55:23;14.07;;;8.93;;
15931;SDS011;8065;49.520;11.284;2023-02-15T02:57:56;13.83;;;9.47;;
15931;SDS011;8065;49.520;11.284;2023-02-15T03:00:26;13.63;;;9.00;;
15931;SDS011;8065;49.520;11.284;2023-02-15T03:02:59;15.47;;;9.80;;
15931;SDS011;8065;49.520;11.284;2023-02-15T03:05:31;16.00;;;9.90;;
15931;SDS011;8065;49.520;11.284;2023-02-15T03:08:02;13.97;;;9.07;;
15931;SDS011;8065;49.520;11.284;2023-02-15T03:10:35;14.87;;;8.97;;
15931;SDS011;8065;49.520;11.284;2023-02-15T03:13:04;14.23;;;9.33;;
15931;SDS011;8065;49.520;11.284;2023-02-15T03:15:31;14.70;;;9.53;;
15931;SDS011;8065;49.520;11.284;2023-02-15T03:18:16;14.87;;;9.37;;
15931;SDS011;8065;49.520;11.284;2023-02-15T03:20:47;12.03;;;8.10;;
15931;SDS011;8065;49.520;11.284;2023-02-15T03:23:16;14.07;;;8.70;;
15931;SDS011;8065;49.520;11.284;2023-02-15T03:25:48;12.97;;;8.97;;
15931;SDS011;8065;49.520;11.284;2023-02-15T03:28:19;12.40;;;8.47;;
15931;SDS011;8065;49.520;11.284;2023-02-15T03:30:51;13.03;;;8.43;;
15931;SDS011;8065;49.520;11.284;2023-02-15T03:33:21;14.13;;;9.00;;
15931;SDS011;8065;49.520;11.284;2023-02-15T03:35:52;13.20;;;8.90;;
15931;SDS011;8065;49.520;11.284;2023-02-15T03:38:25;13.23;;;9.07;;
15931;SDS011;8065;49.520;11.284;2023-02-15T03:40:57;14.10;;;9.33;;
15931;SDS011;8065;49.520;11.284;2023-02-15T03:43:39;11.83;;;8.27;;
15931;SDS011;8065;49.520;11.284;2023-02-15T03:46:15;12.30;;;8.27;;
15931;SDS011;8065;49.520;11.284;2023-02-15T03:48:49;12.23;;;8.40;;
15931;SDS011;8065;49.520;11.284;2023-02-15T03:51:21;12.67;;;8.33;;
15931;SDS011;8065;49.520;11.284;2023-02-15T03:54:01;11.97;;;8.07;;
15931;SDS011;8065;49.520;11.284;2023-02-15T03:56:30;11.87;;;8.13;;
15931;SDS011;8065;49.520;11.284;2023-02-15T03:58:56;11.67;;;8.20;;
15931;SDS011;8065;49.520;11.284;2023-02-15T04:01:42;12.97;;;8.23;;
15931;SDS011;8065;49.520;11.284;2023-02-15T04:04:24;12.00;;;7.70;;
15931;SDS011;8065;49.520;11.284;2023-02-15T04:06:55;11.27;;;7.53;;
15931;SDS011;8065;49.520;11.284;2023-02-15T04:09:22;10.93;;;7.37;;
15931;SDS011;8065;49.520;11.284;2023-02-15T04:12:06;12.03;;;7.70;;
15931;SDS011;8065;49.520;11.284;2023-02-15T04:14:33;11.53;;;7.70;;
15931;SDS011;8065;49.520;11.284;2023-02-15T04:17:17;11.37;;;7.40;;
15931;SDS011;8065;49.520;11.284;2023-02-15T04:19:44;11.43;;;7.10;;
15931;SDS011;8065;49.520;11.284;2023-02-15T04:22:30;11.10;;;7.40;;
15931;SDS011;8065;49.520;11.284;2023-02-15T04:25:13;13.00;;;8.40;;
15931;SDS011;8065;49.520;11.284;2023-02-15T04:27:41;12.17;;;7.70;;
15931;SDS011;8065;49.520;11.284;2023-02-15T04:30:10;13.17;;;7.27;;
15931;SDS011;8065;49.520;11.284;2023-02-15T04:32:38;10.77;;;7.30;;
15931;SDS011;8065;49.520;11.284;2023-02-15T04:35:04;13.00;;;8.30;;
15931;SDS011;8065;49.520;11.284;2023-02-15T04:37:33;11.43;;;7.97;;
15931;SDS011;8065;49.520;11.284;2023-02-15T04:40:00;11.97;;;8.20;;
15931;SDS011;8065;49.520;11.284;2023-02-15T04:42:27;11.93;;;7.37;;
15931;SDS011;8065;49.520;11.284;2023-02-15T04:44:54;11.53;;;7.77;;
15931;SDS011;8065;49.520;11.284;2023-02-15T04:47:21;12.33;;;8.13;;
15931;SDS011;8065;49.520;11.284;2023-02-15T04:49:47;11.27;;;7.30;;
15931;SDS011;8065;49.520;11.284;2023-02-15T04:52:14;13.33;;;8.70;;
15931;SDS011;8065;49.520;11.284;2023-02-15T04:54:43;11.00;;;7.73;;
15931;SDS011;8065;49.520;11.284;2023-02-15T04:57:10;12.13;;;7.93;;
15931;SDS011;8065;49.520;11.284;2023-02-15T04:59:36;12.57;;;8.07;;
15931;SDS011;8065;49.520;11.284;2023-02-15T05:02:03;15.27;;;9.73;;
15931;SDS011;8065;49.520;11.284;2023-02-15T05:04:30;11.53;;;8.17;;
15931;SDS011;8065;49.520;11.284;2023-02-15T05:06:56;13.83;;;9.10;;
15931;SDS011;8065;49.520;11.284;2023-02-15T05:09:23;13.37;;;9.93;;
15931;SDS011;8065;49.520;11.284;2023-02-15T05:11:51;13.50;;;8.63;;
15931;SDS011;8065;49.520;11.284;2023-02-15T05:14:17;14.20;;;8.93;;
15931;SDS011;8065;49.520;11.284;2023-02-15T05:16:44;13.47;;;8.70;;
15931;SDS011;8065;49.520;11.284;2023-02-15T05:19:10;13.47;;;9.23;;
15931;SDS011;8065;49.520;11.284;2023-02-15T05:21:37;12.93;;;8.73;;
15931;SDS011;8065;49.520;11.284;2023-02-15T05:24:03;13.33;;;9.07;;
15931;SDS011;8065;49.520;11.284;2023-02-15T05:26:52;14.07;;;8.97;;
15931;SDS011;8065;49.520;11.284;2023-02-15T05:29:35;12.30;;;8.77;;
15931;SDS011;8065;49.520;11.284;2023-02-15T05:32:02;13.10;;;8.70;;
15931;SDS011;8065;49.520;11.284;2023-02-15T05:34:29;12.50;;;8.67;;
15931;SDS011;8065;49.520;11.284;2023-02-15T05:36:56;12.77;;;8.63;;
15931;SDS011;8065;49.520;11.284;2023-02-15T05:39:22;13.60;;;9.30;;
15931;SDS011;8065;49.520;11.284;2023-02-15T05:41:49;13.30;;;8.77;;
15931;SDS011;8065;49.520;11.284;2023-02-15T05:44:17;15.00;;;9.97;;
15931;SDS011;8065;49.520;11.284;2023-02-15T05:46:44;16.17;;;9.10;;
15931;SDS011;8065;49.520;11.284;2023-02-15T05:49:10;15.23;;;8.67;;
15931;SDS011;8065;49.520;11.284;2023-02-15T05:51:37;14.03;;;9.23;;
15931;SDS011;8065;49.520;11.284;2023-02-15T05:54:03;13.87;;;8.83;;
15931;SDS011;8065;49.520;11.284;2023-02-15T05:56:30;14.57;;;9.37;;
15931;SDS011;8065;49.520;11.284;2023-02-15T05:58:56;13.70;;;9.27;;
15931;SDS011;8065;49.520;11.284;2023-02-15T06:01:24;15.57;;;10.07;;
15931;SDS011;8065;49.520;11.284;2023-02-15T06:03:50;15.23;;;9.23;;
15931;SDS011;8065;49.520;11.284;2023-02-15T06:06:17;15.60;;;9.60;;
15931;SDS011;8065;49.520;11.284;2023-02-15T06:08:44;15.47;;;8.97;;
15931;SDS011;8065;49.520;11.284;2023-02-15T06:11:10;14.17;;;8.80;;
15931;SDS011;8065;49.520;11.284;2023-02-15T06:13:37;13.93;;;8.90;;
15931;SDS011;8065;49.520;11.284;2023-02-15T06:16:04;14.07;;;9.10;;
15931;SDS011;8065;49.520;11.284;2023-02-15T06:18:32;17.00;;;9.30;;
15931;SDS011;8065;49.520;11.284;2023-02-15T06:20:59;13.10;;;8.83;;
15931;SDS011;8065;49.520;11.284;2023-02-15T06:23:26;13.60;;;8.47;;
15931;SDS011;8065;49.520;11.284;2023-02-15T06:25:52;14.73;;;10.07;;
15931;SDS011;8065;49.520;11.284;2023-02-15T06:28:19;14.00;;;8.87;;
15931;SDS011;8065;49.520;11.284;2023-02-15T06:30:46;12.50;;;8.13;;
15931;SDS011;8065;49.520;11.284;2023-02-15T06:33:12;12.23;;;8.53;;
15931;SDS011;8065;49.520;11.284;2023-02-15T06:35:40;15.43;;;9.73;;
15931;SDS011;8065;49.520;11.284;2023-02-15T06:38:07;14.93;;;9.07;;
15931;SDS011;8065;49.520;11.284;2023-02-15T06:40:33;10.83;;;7.60;;
15931;SDS011;8065;49.520;11.284;2023-02-15T06:43:00;12.87;;;8.37;;
15931;SDS011;8065;49.520;11.284;2023-02-15T06:45:26;13.47;;;9.37;;
15931;SDS011;8065;49.520;11.284;2023-02-15T06:47:53;13.97;;;8.63;;
15931;SDS011;8065;49.520;11.284;2023-02-15T06:50:19;12.90;;;7.90;;
15931;SDS011;8065;49.520;11.284;2023-02-15T06:52:47;11.07;;;7.93;;
15931;SDS011;8065;49.520;11.284;2023-02-15T06:55:14;12.93;;;8.60;;
15931;SDS011;8065;49.520;11.284;2023-02-15T06:57:40;12.80;;;8.03;;
15931;SDS011;8065;49.520;11.284;2023-02-15T07:00:07;12.03;;;7.60;;
15931;SDS011;8065;49.520;11.284;2023-02-15T07:02:34;12.77;;;7.60;;
15931;SDS011;8065;49.520;11.284;2023-02-15T07:05:01;12.43;;;8.00;;
15931;SDS011;8065;49.520;11.284;2023-02-15T07:07:30;11.37;;;7.33;;
15931;SDS011;8065;49.520;11.284;2023-02-15T07:09:57;12.83;;;8.27;;
15931;SDS011;8065;49.520;11.284;2023-02-15T07:12:24;11.60;;;8.03;;
15931;SDS011;8065;49.520;11.284;2023-02-15T07:15:09;11.33;;;7.33;;
15931;SDS011;8065;49.520;11.284;2023-02-15T07:17:37;14.23;;;8.40;;
15931;SDS011;8065;49.520;11.284;2023-02-15T07:20:04;12.40;;;8.17;;
15931;SDS011;8065;49.520;11.284;2023-02-15T07:22:33;12.67;;;8.13;;
15931;SDS011;8065;49.520;11.284;2023-02-15T07:25:02;12.33;;;8.20;;
15931;SDS011;8065;49.520;11.284;2023-02-15T07:27:29;10.73;;;7.83;;
15931;SDS011;8065;49.520;11.284;2023-02-15T07:29:56;13.63;;;8.23;;
15931;SDS011;8065;49.520;11.284;2023-02-15T07:32:23;14.77;;;8.63;;
15931;SDS011;8065;49.520;11.284;2023-02-15T07:34:49;12.77;;;8.13;;
15931;SDS011;8065;49.520;11.284;2023-02-15T07:37:16;11.17;;;7.63;;
15931;SDS011;8065;49.520;11.284;2023-02-15T07:39:42;10.93;;;7.83;;
15931;SDS011;8065;49.520;11.284;2023-02-15T07:42:10;11.07;;;7.33;;
15931;SDS011;8065;49.520;11.284;2023-02-15T07:44:37;13.17;;;7.50;;
15931;SDS011;8065;49.520;11.284;2023-02-15T07:47:03;10.70;;;7.20;;
15931;SDS011;8065;49.520;11.284;2023-02-15T07:49:30;15.63;;;9.50;;
15931;SDS011;8065;49.520;11.284;2023-02-15T07:51:56;9.83;;;6.73;;
15931;SDS011;8065;49.520;11.284;2023-02-15T07:54:23;12.97;;;9.07;;
15931;SDS011;8065;49.520;11.284;2023-02-15T07:56:49;13.97;;;9.47;;
15931;SDS011;8065;49.520;11.284;2023-02-15T07:59:17;13.97;;;9.10;;
15931;SDS011;8065;49.520;11.284;2023-02-15T08:01:43;14.33;;;9.63;;
15931;SDS011;8065;49.520;11.284;2023-02-15T08:04:10;12.30;;;8.67;;
15931;SDS011;8065;49.520;11.284;2023-02-15T08:06:37;13.07;;;9.13;;
15931;SDS011;8065;49.520;11.284;2023-02-15T08:09:04;14.03;;;9.27;;
15931;SDS011;8065;49.520;11.284;2023-02-15T08:11:32;14.50;;;9.93;;
15931;SDS011;8065;49.520;11.284;2023-02-15T08:14:02;12.93;;;8.67;;
15931;SDS011;8065;49.520;11.284;2023-02-15T08:16:32;12.70;;;9.20;;
15931;SDS011;8065;49.520;11.284;2023-02-15T08:19:01;13.63;;;9.57;;
15931;SDS011;8065;49.520;11.284;2023-02-15T08:21:30;13.53;;;9.20;;
15931;SDS011;8065;49.520;11.284;2023-02-15T08:23:58;15.03;;;9.87;;
15931;SDS011;8065;49.520;11.284;2023-02-15T08:26:25;13.90;;;9.17;;
15931;SDS011;8065;49.520;11.284;2023-02-15T08:28:52;12.67;;;9.40;;
15931;SDS011;8065;49.520;11.284;2023-02-15T08:31:19;15.07;;;9.83;;
15931;SDS011;8065;49.520;11.284;2023-02-15T08:33:48;15.63;;;10.80;;
15931;SDS011;8065;49.520;11.284;2023-02-15T08:36:16;15.43;;;9.27;;
15931;SDS011;8065;49.520;11.284;2023-02-15T08:38:45;13.53;;;8.93;;
15931;SDS011;8065;49.520;11.284;2023-02-15T08:41:12;10.33;;;7.87;;
15931;SDS011;8065;49.520;11.284;2023-02-15T08:43:40;12.20;;;8.40;;
15931;SDS011;8065;49.520;11.284;2023-02-15T08:46:07;11.23;;;8.33;;
15931;SDS011;8065;49.520;11.284;2023-02-15T08:48:34;12.30;;;8.17;;
15931;SDS011;8065;49.520;11.284;2023-02-15T08:51:05;12.63;;;8.63;;
15931;SDS011;8065;49.520;11.284;2023-02-15T08:53:35;14.30;;;9.33;;
15931;SDS011;8065;49.520;11.284;2023-02-15T08:56:02;11.73;;;8.20;;
15931;SDS011;8065;49.520;11.284;2023-02-15T08:58:29;12.20;;;8.40;;
15931;SDS011;8065;49.520;11.284;2023-02-15T09:00:56;11.37;;;8.40;;
15931;SDS011;8065;49.520;11.284;2023-02-15T09:03:23;19.43;;;12.10;;
15931;SDS011;8065;49.520;11.284;2023-02-15T09:05:49;15.57;;;10.00;;
15931;SDS011;8065;49.520;11.284;2023-02-15T09:08:17;13.27;;;8.70;;
15931;SDS011;8065;49.520;11.284;2023-02-15T09:10:45;12.80;;;8.33;;
15931;SDS011;8065;49.520;11.284;2023-02-15T09:13:11;14.80;;;9.23;;
15931;SDS011;8065;49.520;11.284;2023-02-15T09:15:38;14.27;;;9.43;;
15931;SDS011;8065;49.520;11.284;2023-02-15T09:18:04;13.83;;;9.67;;
15931;SDS011;8065;49.520;11.284;2023-02-15T09:20:34;15.23;;;9.90;;
15931;SDS011;8065;49.520;11.284;2023-02-15T09:23:02;14.87;;;10.10;;
15931;SDS011;8065;49.520;11.284;2023-02-15T09:25:30;15.03;;;10.03;;
15931;SDS011;8065;49.520;11.284;2023-02-15T09:27:56;14.73;;;10.13;;
15931;SDS011;8065;49.520;11.284;2023-02-15T09:30:23;15.07;;;10.27;;
15931;SDS011;8065;49.520;11.284;2023-02-15T09:32:49;15.07;;;9.90;;
15931;SDS011;8065;49.520;11.284;2023-02-15T09:35:16;14.13;;;9.50;;
15931;SDS011;8065;49.520;11.284;2023-02-15T09:37:42;15.30;;;9.60;;
15931;SDS011;8065;49.520;11.284;2023-02-15T09:40:11;14.17;;;10.03;;
15931;SDS011;8065;49.520;11.284;2023-02-15T09:42:56;14.60;;;9.53;;
15931;SDS011;8065;49.520;11.284;2023-02-15T09:45:39;15.07;;;8.57;;
15931;SDS011;8065;49.520;11.284;2023-02-15T09:48:17;12.53;;;9.07;;
15931;SDS011;8065;49.520;11.284;2023-02-15T09:50:59;11.53;;;8.67;;
15931;SDS011;8065;49.520;11.284;2023-02-15T09:53:45;11.43;;;8.27;;
15931;SDS011;8065;49.520;11.284;2023-02-15T09:56:36;14.47;;;9.30;;
15931;SDS011;8065;49.520;11.284;2023-02-15T09:59:10;11.67;;;8.87;;
15931;SDS011;8065;49.520;11.284;2023-02-15T10:01:48;12.37;;;9.20;;
15931;SDS011;8065;49.520;11.284;2023-02-15T10:04:33;11.13;;;8.70;;
15931;SDS011;8065;49.520;11.284;2023-02-15T10:07:15;12.83;;;9.50;;
15931;SDS011;8065;49.520;11.284;2023-02-15T10:10:03;13.83;;;9.60;;
15931;SDS011;8065;49.520;11.284;2023-02-15T10:15:38;12.23;;;9.20;;
15931;SDS011;8065;49.520;11.284;2023-02-15T10:18:29;12.13;;;8.97;;
15931;SDS011;8065;49.520;11.284;2023-02-15T10:21:18;13.50;;;9.00;;
15931;SDS011;8065;49.520;11.284;2023-02-15T10:24:08;12.93;;;9.67;;
15931;SDS011;8065;49.520;11.284;2023-02-15T10:26:48;15.63;;;10.17;;
15931;SDS011;8065;49.520;11.284;2023-02-15T10:29:16;15.13;;;9.67;;
15931;SDS011;8065;49.520;11.284;2023-02-15T10:31:56;14.07;;;10.10;;
15931;SDS011;8065;49.520;11.284;2023-02-15T10:34:31;13.70;;;10.20;;
15931;SDS011;8065;49.520;11.284;2023-02-15T10:40:08;13.60;;;9.43;;
15931;SDS011;8065;49.520;11.284;2023-02-15T10:42:44;14.13;;;10.20;;
15931;SDS011;8065;49.520;11.284;2023-02-15T10:45:23;13.60;;;10.37;;
15931;SDS011;8065;49.520;11.284;2023-02-15T10:48:06;16.77;;;10.57;;
15931;SDS011;8065;49.520;11.284;2023-02-15T10:50:47;12.73;;;9.40;;
15931;SDS011;8065;49.520;11.284;2023-02-15T10:53:20;14.53;;;10.13;;
15931;SDS011;8065;49.520;11.284;2023-02-15T10:55:56;16.17;;;10.47;;
15931;SDS011;8065;49.520;11.284;2023-02-15T10:58:34;12.57;;;9.70;;
15931;SDS011;8065;49.520;11.284;2023-02-15T11:01:13;14.30;;;10.43;;
15931;SDS011;8065;49.520;11.284;2023-02-15T11:07:02;13.97;;;10.20;;
15931;SDS011;8065;49.520;11.284;2023-02-15T11:09:36;14.03;;;10.77;;
15931;SDS011;8065;49.520;11.284;2023-02-15T11:12:08;13.37;;;9.60;;
15931;SDS011;8065;49.520;11.284;2023-02-15T11:14:40;12.93;;;10.03;;
15931;SDS011;8065;49.520;11.284;2023-02-15T11:17:14;13.23;;;9.37;;
15931;SDS011;8065;49.520;11.284;2023-02-15T11:19:47;13.50;;;9.90;;
15931;SDS011;8065;49.520;11.284;2023-02-15T11:22:22;12.67;;;9.70;;
15931;SDS011;8065;49.520;11.284;2023-02-15T11:24:49;12.57;;;9.90;;
15931;SDS011;8065;49.520;11.284;2023-02-15T11:27:20;14.20;;;9.97;;
15931;SDS011;8065;49.520;11.284;2023-02-15T11:29:52;11.53;;;8.87;;
15931;SDS011;8065;49.520;11.284;2023-02-15T11:32:25;14.77;;;10.40;;
15931;SDS011;8065;49.520;11.284;2023-02-15T11:34:56;12.87;;;9.50;;
15931;SDS011;8065;49.520;11.284;2023-02-15T11:37:29;14.13;;;10.67;;
15931;SDS011;8065;49.520;11.284;2023-02-15T11:40:02;12.83;;;9.17;;
15931;SDS011;8065;49.520;11.284;2023-02-15T11:42:29;10.77;;;8.03;;
15931;SDS011;8065;49.520;11.284;2023-02-15T11:44:59;10.57;;;8.73;;
15931;SDS011;8065;49.520;11.284;2023-02-15T11:47:30;11.53;;;9.30;;
15931;SDS011;8065;49.520;11.284;2023-02-15T11:49:59;12.13;;;8.70;;
15931;SDS011;8065;49.520;11.284;2023-02-15T11:52:25;9.53;;;8.00;;
15931;SDS011;8065;49.520;11.284;2023-02-15T11:54:52;10.53;;;8.70;;
15931;SDS011;8065;49.520;11.284;2023-02-15T11:57:20;12.63;;;8.47;;
15931;SDS011;8065;49.520;11.284;2023-02-15T11:59:53;11.23;;;8.57;;
15931;SDS011;8065;49.520;11.284;2023-02-15T12:02:26;10.03;;;8.03;;
15931;SDS011;8065;49.520;11.284;2023-02-15T12:04:56;10.63;;;8.43;;
15931;SDS011;8065;49.520;11.284;2023-02-15T12:07:28;11.10;;;8.77;;
15931;SDS011;8065;49.520;11.284;2023-02-15T12:10:00;10.23;;;8.23;;
15931;SDS011;8065;49.520;11.284;2023-02-15T12:12:32;11.40;;;8.57;;
15931;SDS011;8065;49.520;11.284;2023-02-15T12:15:01;10.53;;;8.90;;
15931;SDS011;8065;49.520;11.284;2023-02-15T12:17:31;11.60;;;8.80;;
15931;SDS011;8065;49.520;11.284;2023-02-15T12:20:03;10.30;;;8.93;;
15931;SDS011;8065;49.520;11.284;2023-02-15T12:22:34;10.70;;;8.53;;
15931;SDS011;8065;49.520;11.284;2023-02-15T12:25:04;10.37;;;8.80;;
15931;SDS011;8065;49.520;11.284;2023-02-15T12:27:47;10.73;;;8.27;;
15931;SDS011;8065;49.520;11.284;2023-02-15T12:30:16;10.50;;;8.43;;
15931;SDS011;8065;49.520;11.284;2023-02-15T12:32:47;10.93;;;8.43;;
15931;SDS011;8065;49.520;11.284;2023-02-15T12:35:26;10.90;;;7.83;;
15931;SDS011;8065;49.520;11.284;2023-02-15T12:38:04;11.07;;;8.37;;
15931;SDS011;8065;49.520;11.284;2023-02-15T12:40:45;10.57;;;7.83;;
15931;SDS011;8065;49.520;11.284;2023-02-15T12:43:25;9.67;;;8.27;;
15931;SDS011;8065;49.520;11.284;2023-02-15T12:45:53;11.30;;;8.03;;
15931;SDS011;8065;49.520;11.284;2023-02-15T12:48:40;8.63;;;7.70;;
15931;SDS011;8065;49.520;11.284;2023-02-15T12:51:08;10.40;;;8.87;;
15931;SDS011;8065;49.520;11.284;2023-02-15T12:53:39;10.27;;;8.67;;
15931;SDS011;8065;49.520;11.284;2023-02-15T12:56:06;12.60;;;9.03;;
15931;SDS011;8065;49.520;11.284;2023-02-15T12:58:38;12.30;;;8.57;;
15931;SDS011;8065;49.520;11.284;2023-02-15T13:01:10;11.70;;;9.57;;
15931;SDS011;8065;49.520;11.284;2023-02-15T13:03:51;11.03;;;8.67;;
15931;SDS011;8065;49.520;11.284;2023-02-15T13:06:24;11.53;;;9.17;;
15931;SDS011;8065;49.520;11.284;2023-02-15T13:08:52;11.03;;;8.43;;
15931;SDS011;8065;49.520;11.284;2023-02-15T13:11:22;11.67;;;8.43;;
15931;SDS011;8065;49.520;11.284;2023-02-15T13:13:53;10.73;;;8.57;;
15931;SDS011;8065;49.520;11.284;2023-02-15T13:16:24;12.43;;;9.20;;
15931;SDS011;8065;49.520;11.284;2023-02-15T13:18:56;10.83;;;9.07;;
15931;SDS011;8065;49.520;11.284;2023-02-15T13:21:26;12.13;;;9.27;;
15931;SDS011;8065;49.520;11.284;2023-02-15T13:23:57;12.37;;;9.47;;
15931;SDS011;8065;49.520;11.284;2023-02-15T13:26:29;11.23;;;9.03;;
15931;SDS011;8065;49.520;11.284;2023-02-15T13:28:58;17.07;;;12.03;;
15931;SDS011;8065;49.520;11.284;2023-02-15T13:31:33;11.20;;;8.70;;
15931;SDS011;8065;49.520;11.284;2023-02-15T13:34:02;12.20;;;9.30;;
15931;SDS011;8065;49.520;11.284;2023-02-15T13:36:37;11.37;;;9.20;;
15931;SDS011;8065;49.520;11.284;2023-02-15T13:39:15;14.00;;;9.10;;
15931;SDS011;8065;49.520;11.284;2023-02-15T13:41:51;13.23;;;9.50;;
15931;SDS011;8065;49.520;11.284;2023-02-15T13:44:26;10.73;;;9.07;;
15931;SDS011;8065;49.520;11.284;2023-02-15T13:47:26;12.23;;;9.43;;
15931;SDS011;8065;49.520;11.284;2023-02-15T13:50:03;10.87;;;9.30;;
15931;SDS011;8065;49.520;11.284;2023-02-15T13:52:45;13.43;;;9.73;;
15931;SDS011;8065;49.520;11.284;2023-02-15T13:55:21;11.33;;;9.00;;
15931;SDS011;8065;49.520;11.284;2023-02-15T13:58:02;10.70;;;9.23;;
15931;SDS011;8065;49.520;11.284;2023-02-15T14:00:47;13.40;;;9.80;;
15931;SDS011;8065;49.520;11.284;2023-02-15T14:03:39;13.73;;;10.20;;
15931;SDS011;8065;49.520;11.284;2023-02-15T14:06:25;11.73;;;9.47;;
15931;SDS011;8065;49.520;11.284;2023-02-15T14:09:05;12.17;;;9.63;;
15931;SDS011;8065;49.520;11.284;2023-02-15T14:11:44;12.23;;;9.80;;
15931;SDS011;8065;49.520;11.284;2023-02-15T14:14:38;12.17;;;9.70;;
15931;SDS011;8065;49.520;11.284;2023-02-15T14:17:25;11.97;;;9.47;;
15931;SDS011;8065;49.520;11.284;2023-02-15T14:19:59;14.37;;;10.60;;
15931;SDS011;8065;49.520;11.284;2023-02-15T14:22:31;11.20;;;9.50;;
15931;SDS011;8065;49.520;11.284;2023-02-15T14:25:17;12.90;;;10.33;;
15931;SDS011;8065;49.520;11.284;2023-02-15T14:27:54;14.80;;;11.10;;
15931;SDS011;8065;49.520;11.284;2023-02-15T14:30:27;11.73;;;10.30;;
15931;SDS011;8065;49.520;11.284;2023-02-15T14:32:58;11.57;;;10.07;;
15931;SDS011;8065;49.520;11.284;2023-02-15T14:35:29;12.10;;;10.67;;
15931;SDS011;8065;49.520;11.284;2023-02-15T14:37:58;13.43;;;10.47;;
15931;SDS011;8065;49.520;11.284;2023-02-15T14:40:37;14.90;;;11.03;;
15931;SDS011;8065;49.520;11.284;2023-02-15T14:43:31;15.43;;;11.13;;
15931;SDS011;8065;49.520;11.284;2023-02-15T14:46:16;13.43;;;11.50;;
15931;SDS011;8065;49.520;11.284;2023-02-15T14:48:50;13.30;;;11.07;;
15931;SDS011;8065;49.520;11.284;2023-02-15T14:57:27;15.87;;;11.23;;
15931;SDS011;8065;49.520;11.284;2023-02-15T14:59:56;17.23;;;12.27;;
15931;SDS011;8065;49.520;11.284;2023-02-15T15:02:26;14.57;;;11.77;;
15931;SDS011;8065;49.520;11.284;2023-02-15T15:04:56;15.43;;;11.43;;
15931;SDS011;8065;49.520;11.284;2023-02-15T15:07:27;18.27;;;11.93;;
15931;SDS011;8065;49.520;11.284;2023-02-15T15:10:03;14.40;;;11.87;;
15931;SDS011;8065;49.520;11.284;2023-02-15T15:12:42;15.07;;;12.10;;
15931;SDS011;8065;49.520;11.284;2023-02-15T15:15:14;14.03;;;11.97;;
15931;SDS011;8065;49.520;11.284;2023-02-15T15:17:59;15.13;;;12.10;;